sensor_id;sensor_type;location;lat;lon;timestamp;temperature;humidity
11025;DHT22;22890;51.820;8.682;2022-08-19T00:01:33;20.60;99.90
11025;DHT22;22890;51.820;8.682;2022-08-19T00:04:09;20.50;99.90
11025;DHT22;22890;51.820;8.682;2022-08-19T00:06:37;20.50;99.90
11025;DHT22;22890;51.820;8.682;2022-08-19T00:09:07;20.50;99.90
11025;DHT22;22890;51.820;8.682;2022-08-19T00:11:34;20.40;99.90
11025;DHT22;22890;51.820;8.682;2022-08-19T00:14:08;20.40;99.90
11025;DHT22;22890;51.820;8.682;2022-08-19T00:16:37;20.40;99.90
11025;DHT22;22890;51.820;8.682;2022-08-19T00:19:05;20.50;99.90
11025;DHT22;22890;51.820;8.682;2022-08-19T00:21:32;20.30;99.90
11025;DHT22;22890;51.820;8.682;2022-08-19T00:23:59;20.20;99.90
11025;DHT22;22890;51.820;8.682;2022-08-19T00:26:27;20.20;99.90
11025;DHT22;22890;51.820;8.682;2022-08-19T00:28:54;20.20;99.90
11025;DHT22;22890;51.820;8.682;2022-08-19T00:31:21;20.20;99.90
11025;DHT22;22890;51.820;8.682;2022-08-19T00:33:48;20.20;99.90
11025;DHT22;22890;51.820;8.682;2022-08-19T00:36:19;20.20;99.90
11025;DHT22;22890;51.820;8.682;2022-08-19T00:38:47;20.10;99.90
11025;DHT22;22890;51.820;8.682;2022-08-19T00:41:15;20.20;99.90
11025;DHT22;22890;51.820;8.682;2022-08-19T00:44:02;20.10;99.90
11025;DHT22;22890;51.820;8.682;2022-08-19T00:46:29;20.00;99.90
11025;DHT22;22890;51.820;8.682;2022-08-19T00:48:57;20.00;99.90
11025;DHT22;22890;51.820;8.682;2022-08-19T00:51:27;20.10;99.90
11025;DHT22;22890;51.820;8.682;2022-08-19T00:53:57;20.00;99.90
11025;DHT22;22890;51.820;8.682;2022-08-19T00:56:25;20.00;99.90
11025;DHT22;22890;51.820;8.682;2022-08-19T00:58:55;19.90;99.90
11025;DHT22;22890;51.820;8.682;2022-08-19T01:01:22;19.90;99.90
11025;DHT22;22890;51.820;8.682;2022-08-19T01:03:49;19.80;99.90
11025;DHT22;22890;51.820;8.682;2022-08-19T01:06:25;19.80;99.90
11025;DHT22;22890;51.820;8.682;2022-08-19T01:08:53;19.80;99.90
11025;DHT22;22890;51.820;8.682;2022-08-19T01:11:20;19.70;99.90
11025;DHT22;22890;51.820;8.682;2022-08-19T01:13:47;20.60;99.90
11025;DHT22;22890;51.820;8.682;2022-08-19T01:16:17;19.60;99.90
11025;DHT22;22890;51.820;8.682;2022-08-19T01:18:45;19.50;99.90
11025;DHT22;22890;51.820;8.682;2022-08-19T01:21:30;19.50;99.90
11025;DHT22;22890;51.820;8.682;2022-08-19T01:23:57;19.40;99.90
11025;DHT22;22890;51.820;8.682;2022-08-19T01:26:26;19.40;99.90
11025;DHT22;22890;51.820;8.682;2022-08-19T01:28:55;19.00;99.90
11025;DHT22;22890;51.820;8.682;2022-08-19T01:31:28;19.40;99.90
11025;DHT22;22890;51.820;8.682;2022-08-19T01:33:59;19.40;99.90
11025;DHT22;22890;51.820;8.682;2022-08-19T01:39:04;19.40;99.90
11025;DHT22;22890;51.820;8.682;2022-08-19T01:41:32;19.30;99.90
11025;DHT22;22890;51.820;8.682;2022-08-19T01:44:00;19.40;99.90
11025;DHT22;22890;51.820;8.682;2022-08-19T01:46:44;19.20;99.90
11025;DHT22;22890;51.820;8.682;2022-08-19T01:49:10;19.10;99.90
11025;DHT22;22890;51.820;8.682;2022-08-19T01:51:37;19.10;99.90
11025;DHT22;22890;51.820;8.682;2022-08-19T01:54:07;19.10;99.90
11025;DHT22;22890;51.820;8.682;2022-08-19T01:56:33;19.10;99.90
11025;DHT22;22890;51.820;8.682;2022-08-19T01:59:03;19.20;99.90
11025;DHT22;22890;51.820;8.682;2022-08-19T02:01:30;19.10;99.90
11025;DHT22;22890;51.820;8.682;2022-08-19T02:03:59;19.10;99.90
11025;DHT22;22890;51.820;8.682;2022-08-19T02:06:28;19.10;99.90
11025;DHT22;22890;51.820;8.682;2022-08-19T02:08:55;19.10;99.90
11025;DHT22;22890;51.820;8.682;2022-08-19T02:11:26;19.10;99.90
11025;DHT22;22890;51.820;8.682;2022-08-19T02:13:54;19.10;99.90
11025;DHT22;22890;51.820;8.682;2022-08-19T02:16:21;19.10;99.90
11025;DHT22;22890;51.820;8.682;2022-08-19T02:18:48;19.00;99.90
11025;DHT22;22890;51.820;8.682;2022-08-19T02:21:17;19.00;99.90
11025;DHT22;22890;51.820;8.682;2022-08-19T02:23:44;18.90;99.90
11025;DHT22;22890;51.820;8.682;2022-08-19T02:26:12;18.90;99.90
11025;DHT22;22890;51.820;8.682;2022-08-19T02:28:39;18.90;99.90
11025;DHT22;22890;51.820;8.682;2022-08-19T02:31:18;18.90;99.90
11025;DHT22;22890;51.820;8.682;2022-08-19T02:33:46;18.80;99.90
11025;DHT22;22890;51.820;8.682;2022-08-19T02:36:14;18.80;99.90
11025;DHT22;22890;51.820;8.682;2022-08-19T02:38:42;18.80;99.90
11025;DHT22;22890;51.820;8.682;2022-08-19T02:41:23;18.70;99.90
11025;DHT22;22890;51.820;8.682;2022-08-19T02:43:56;18.80;99.90
11025;DHT22;22890;51.820;8.682;2022-08-19T02:46:46;18.60;99.90
11025;DHT22;22890;51.820;8.682;2022-08-19T02:49:13;18.60;99.90
11025;DHT22;22890;51.820;8.682;2022-08-19T02:51:44;18.50;99.90
11025;DHT22;22890;51.820;8.682;2022-08-19T02:54:12;18.50;99.90
11025;DHT22;22890;51.820;8.682;2022-08-19T02:56:40;18.50;99.90
11025;DHT22;22890;51.820;8.682;2022-08-19T02:59:07;18.50;99.90
11025;DHT22;22890;51.820;8.682;2022-08-19T03:01:38;18.50;99.90
11025;DHT22;22890;51.820;8.682;2022-08-19T03:04:08;18.50;99.90
11025;DHT22;22890;51.820;8.682;2022-08-19T03:06:37;18.50;99.90
11025;DHT22;22890;51.820;8.682;2022-08-19T03:09:05;18.70;99.90
11025;DHT22;22890;51.820;8.682;2022-08-19T03:11:32;18.40;99.90
11025;DHT22;22890;51.820;8.682;2022-08-19T03:14:00;18.40;99.90
11025;DHT22;22890;51.820;8.682;2022-08-19T03:16:30;18.40;99.90
11025;DHT22;22890;51.820;8.682;2022-08-19T03:19:00;18.40;99.90
11025;DHT22;22890;51.820;8.682;2022-08-19T03:21:31;18.40;99.90
11025;DHT22;22890;51.820;8.682;2022-08-19T03:24:00;18.40;99.90
11025;DHT22;22890;51.820;8.682;2022-08-19T03:26:27;16.80;99.90
11025;DHT22;22890;51.820;8.682;2022-08-19T03:28:54;18.30;99.90
11025;DHT22;22890;51.820;8.682;2022-08-19T03:31:26;18.50;99.90
11025;DHT22;22890;51.820;8.682;2022-08-19T03:34:17;18.30;99.90
11025;DHT22;22890;51.820;8.682;2022-08-19T03:36:44;18.20;99.90
11025;DHT22;22890;51.820;8.682;2022-08-19T03:39:12;18.20;99.90
11025;DHT22;22890;51.820;8.682;2022-08-19T03:41:41;18.30;99.90
11025;DHT22;22890;51.820;8.682;2022-08-19T03:44:13;18.20;99.90
11025;DHT22;22890;51.820;8.682;2022-08-19T03:46:44;18.20;99.90
11025;DHT22;22890;51.820;8.682;2022-08-19T03:49:10;18.20;99.90
11025;DHT22;22890;51.820;8.682;2022-08-19T03:51:41;18.30;99.90
11025;DHT22;22890;51.820;8.682;2022-08-19T03:54:11;18.10;99.90
11025;DHT22;22890;51.820;8.682;2022-08-19T03:56:40;18.10;99.90
11025;DHT22;22890;51.820;8.682;2022-08-19T03:59:10;18.20;99.90
11025;DHT22;22890;51.820;8.682;2022-08-19T04:01:37;18.10;99.90
11025;DHT22;22890;51.820;8.682;2022-08-19T04:04:03;18.00;99.90
11025;DHT22;22890;51.820;8.682;2022-08-19T04:06:33;18.00;99.90
11025;DHT22;22890;51.820;8.682;2022-08-19T04:09:09;17.80;99.90
11025;DHT22;22890;51.820;8.682;2022-08-19T04:11:41;17.80;99.90
11025;DHT22;22890;51.820;8.682;2022-08-19T04:14:17;17.70;99.90
11025;DHT22;22890;51.820;8.682;2022-08-19T04:16:45;17.70;99.90
11025;DHT22;22890;51.820;8.682;2022-08-19T04:19:13;17.70;99.90
11025;DHT22;22890;51.820;8.682;2022-08-19T04:21:43;17.70;99.90
11025;DHT22;22890;51.820;8.682;2022-08-19T04:24:10;17.70;99.90
11025;DHT22;22890;51.820;8.682;2022-08-19T04:26:37;17.70;99.90
11025;DHT22;22890;51.820;8.682;2022-08-19T04:29:08;17.70;99.90
11025;DHT22;22890;51.820;8.682;2022-08-19T04:31:39;17.70;99.90
11025;DHT22;22890;51.820;8.682;2022-08-19T04:34:08;17.60;99.90
11025;DHT22;22890;51.820;8.682;2022-08-19T04:36:39;17.50;99.90
11025;DHT22;22890;51.820;8.682;2022-08-19T04:39:15;17.50;99.90
11025;DHT22;22890;51.820;8.682;2022-08-19T04:41:43;17.50;99.90
11025;DHT22;22890;51.820;8.682;2022-08-19T04:44:34;17.70;99.90
11025;DHT22;22890;51.820;8.682;2022-08-19T04:47:01;17.60;99.90
11025;DHT22;22890;51.820;8.682;2022-08-19T04:49:36;17.60;99.90
11025;DHT22;22890;51.820;8.682;2022-08-19T04:52:03;17.60;99.90
11025;DHT22;22890;51.820;8.682;2022-08-19T04:54:29;17.60;99.90
11025;DHT22;22890;51.820;8.682;2022-08-19T04:57:06;17.60;99.90
11025;DHT22;22890;51.820;8.682;2022-08-19T04:59:35;17.60;99.90
11025;DHT22;22890;51.820;8.682;2022-08-19T05:02:03;17.70;99.90
11025;DHT22;22890;51.820;8.682;2022-08-19T05:04:30;17.60;99.90
11025;DHT22;22890;51.820;8.682;2022-08-19T05:06:59;17.50;99.90
11025;DHT22;22890;51.820;8.682;2022-08-19T05:09:28;17.70;99.90
11025;DHT22;22890;51.820;8.682;2022-08-19T05:12:15;17.50;99.90
11025;DHT22;22890;51.820;8.682;2022-08-19T05:14:42;17.50;99.90
11025;DHT22;22890;51.820;8.682;2022-08-19T05:17:11;17.50;99.90
11025;DHT22;22890;51.820;8.682;2022-08-19T05:19:53;17.50;99.90
11025;DHT22;22890;51.820;8.682;2022-08-19T05:22:39;17.60;99.90
11025;DHT22;22890;51.820;8.682;2022-08-19T05:25:08;17.70;99.90
11025;DHT22;22890;51.820;8.682;2022-08-19T05:27:40;17.70;99.90
11025;DHT22;22890;51.820;8.682;2022-08-19T05:30:07;17.80;99.90
11025;DHT22;22890;51.820;8.682;2022-08-19T05:32:34;17.70;99.90
11025;DHT22;22890;51.820;8.682;2022-08-19T05:35:01;17.70;99.90
11025;DHT22;22890;51.820;8.682;2022-08-19T05:37:27;17.80;99.90
11025;DHT22;22890;51.820;8.682;2022-08-19T05:39:55;17.90;99.90
11025;DHT22;22890;51.820;8.682;2022-08-19T05:42:22;18.10;99.90
11025;DHT22;22890;51.820;8.682;2022-08-19T05:44:50;18.00;99.90
11025;DHT22;22890;51.820;8.682;2022-08-19T05:47:18;18.10;99.90
11025;DHT22;22890;51.820;8.682;2022-08-19T05:49:46;18.10;99.90
11025;DHT22;22890;51.820;8.682;2022-08-19T05:52:14;18.20;99.90
11025;DHT22;22890;51.820;8.682;2022-08-19T05:54:45;18.30;99.90
11025;DHT22;22890;51.820;8.682;2022-08-19T05:57:17;18.40;99.90
11025;DHT22;22890;51.820;8.682;2022-08-19T05:59:44;18.50;99.90
11025;DHT22;22890;51.820;8.682;2022-08-19T06:02:14;18.60;99.90
11025;DHT22;22890;51.820;8.682;2022-08-19T06:04:41;18.80;99.90
11025;DHT22;22890;51.820;8.682;2022-08-19T06:07:09;18.90;99.90
11025;DHT22;22890;51.820;8.682;2022-08-19T06:09:39;19.00;99.90
11025;DHT22;22890;51.820;8.682;2022-08-19T06:12:06;19.20;99.90
11025;DHT22;22890;51.820;8.682;2022-08-19T06:14:35;19.20;99.90
11025;DHT22;22890;51.820;8.682;2022-08-19T06:17:07;19.20;99.90
11025;DHT22;22890;51.820;8.682;2022-08-19T06:19:34;19.30;99.90
11025;DHT22;22890;51.820;8.682;2022-08-19T06:22:06;19.60;99.90
11025;DHT22;22890;51.820;8.682;2022-08-19T06:24:34;19.70;99.90
11025;DHT22;22890;51.820;8.682;2022-08-19T06:27:02;19.80;99.90
11025;DHT22;22890;51.820;8.682;2022-08-19T06:29:29;19.90;99.90
11025;DHT22;22890;51.820;8.682;2022-08-19T06:31:59;20.10;99.90
11025;DHT22;22890;51.820;8.682;2022-08-19T06:34:27;20.20;99.90
11025;DHT22;22890;51.820;8.682;2022-08-19T06:36:55;20.20;99.90
11025;DHT22;22890;51.820;8.682;2022-08-19T06:39:25;20.30;99.90
11025;DHT22;22890;51.820;8.682;2022-08-19T06:41:56;20.30;99.90
11025;DHT22;22890;51.820;8.682;2022-08-19T06:44:27;20.40;99.90
11025;DHT22;22890;51.820;8.682;2022-08-19T06:46:56;20.40;99.90
11025;DHT22;22890;51.820;8.682;2022-08-19T06:49:23;20.50;99.90
11025;DHT22;22890;51.820;8.682;2022-08-19T06:51:51;20.60;99.90
11025;DHT22;22890;51.820;8.682;2022-08-19T06:54:18;20.70;99.90
11025;DHT22;22890;51.820;8.682;2022-08-19T06:56:46;20.80;99.90
11025;DHT22;22890;51.820;8.682;2022-08-19T06:59:21;20.90;99.90
11025;DHT22;22890;51.820;8.682;2022-08-19T07:01:51;21.00;99.90
11025;DHT22;22890;51.820;8.682;2022-08-19T07:04:21;21.00;99.90
11025;DHT22;22890;51.820;8.682;2022-08-19T07:06:49;21.10;99.90
11025;DHT22;22890;51.820;8.682;2022-08-19T07:09:21;21.20;99.90
11025;DHT22;22890;51.820;8.682;2022-08-19T07:11:50;21.20;99.90
11025;DHT22;22890;51.820;8.682;2022-08-19T07:14:19;21.20;99.90
11025;DHT22;22890;51.820;8.682;2022-08-19T07:16:49;21.20;99.90
11025;DHT22;22890;51.820;8.682;2022-08-19T07:19:17;21.30;99.90
11025;DHT22;22890;51.820;8.682;2022-08-19T07:21:46;21.30;99.90
11025;DHT22;22890;51.820;8.682;2022-08-19T07:24:13;21.30;99.90
11025;DHT22;22890;51.820;8.682;2022-08-19T07:26:42;21.40;99.90
11025;DHT22;22890;51.820;8.682;2022-08-19T07:29:10;21.30;99.90
11025;DHT22;22890;51.820;8.682;2022-08-19T07:31:39;21.30;99.90
11025;DHT22;22890;51.820;8.682;2022-08-19T07:34:10;21.40;99.90
11025;DHT22;22890;51.820;8.682;2022-08-19T07:36:39;21.40;99.90
11025;DHT22;22890;51.820;8.682;2022-08-19T07:39:13;21.50;99.90
11025;DHT22;22890;51.820;8.682;2022-08-19T07:41:41;21.50;99.90
11025;DHT22;22890;51.820;8.682;2022-08-19T07:44:08;21.60;99.90
11025;DHT22;22890;51.820;8.682;2022-08-19T07:46:38;21.60;99.90
11025;DHT22;22890;51.820;8.682;2022-08-19T07:49:07;21.70;99.90
11025;DHT22;22890;51.820;8.682;2022-08-19T07:51:35;21.60;99.90
11025;DHT22;22890;51.820;8.682;2022-08-19T07:54:03;21.60;99.90
11025;DHT22;22890;51.820;8.682;2022-08-19T07:56:29;21.60;99.90
11025;DHT22;22890;51.820;8.682;2022-08-19T07:58:56;21.70;99.90
11025;DHT22;22890;51.820;8.682;2022-08-19T08:01:25;21.80;99.90
11025;DHT22;22890;51.820;8.682;2022-08-19T08:03:56;21.90;99.90
11025;DHT22;22890;51.820;8.682;2022-08-19T08:06:42;21.90;99.90
11025;DHT22;22890;51.820;8.682;2022-08-19T08:09:41;22.00;99.90
11025;DHT22;22890;51.820;8.682;2022-08-19T08:12:16;23.10;99.90
11025;DHT22;22890;51.820;8.682;2022-08-19T08:15:04;22.30;99.90
11025;DHT22;22890;51.820;8.682;2022-08-19T08:17:34;22.40;99.90
11025;DHT22;22890;51.820;8.682;2022-08-19T08:20:18;22.40;99.90
11025;DHT22;22890;51.820;8.682;2022-08-19T08:22:46;22.50;99.90
11025;DHT22;22890;51.820;8.682;2022-08-19T08:25:32;22.50;99.90
11025;DHT22;22890;51.820;8.682;2022-08-19T08:27:59;22.60;99.90
11025;DHT22;22890;51.820;8.682;2022-08-19T08:30:28;22.70;99.90
11025;DHT22;22890;51.820;8.682;2022-08-19T08:32:58;22.80;99.90
11025;DHT22;22890;51.820;8.682;2022-08-19T08:35:25;22.90;99.90
11025;DHT22;22890;51.820;8.682;2022-08-19T08:37:53;23.00;99.90
11025;DHT22;22890;51.820;8.682;2022-08-19T08:40:42;23.10;99.90
11025;DHT22;22890;51.820;8.682;2022-08-19T08:46:06;21.20;99.90
11025;DHT22;22890;51.820;8.682;2022-08-19T08:51:26;23.40;99.90
11025;DHT22;22890;51.820;8.682;2022-08-19T08:54:02;23.40;99.90
11025;DHT22;22890;51.820;8.682;2022-08-19T08:56:31;23.40;99.90
11025;DHT22;22890;51.820;8.682;2022-08-19T08:59:05;23.50;99.90
11025;DHT22;22890;51.820;8.682;2022-08-19T09:01:35;23.60;99.90
11025;DHT22;22890;51.820;8.682;2022-08-19T09:04:05;23.70;99.90
11025;DHT22;22890;51.820;8.682;2022-08-19T09:06:38;23.80;99.90
11025;DHT22;22890;51.820;8.682;2022-08-19T09:12:14;23.90;99.90
11025;DHT22;22890;51.820;8.682;2022-08-19T09:15:13;23.80;99.90
11025;DHT22;22890;51.820;8.682;2022-08-19T09:17:39;23.90;99.90
11025;DHT22;22890;51.820;8.682;2022-08-19T09:22:37;23.90;99.90
11025;DHT22;22890;51.820;8.682;2022-08-19T09:25:06;23.90;99.90
11025;DHT22;22890;51.820;8.682;2022-08-19T09:27:35;24.00;99.90
11025;DHT22;22890;51.820;8.682;2022-08-19T09:30:13;24.00;99.90
11025;DHT22;22890;51.820;8.682;2022-08-19T09:32:41;24.10;99.90
11025;DHT22;22890;51.820;8.682;2022-08-19T09:35:09;24.10;99.90
11025;DHT22;22890;51.820;8.682;2022-08-19T09:37:37;24.00;99.90
11025;DHT22;22890;51.820;8.682;2022-08-19T09:40:06;24.00;99.90
11025;DHT22;22890;51.820;8.682;2022-08-19T09:42:34;24.00;99.90
11025;DHT22;22890;51.820;8.682;2022-08-19T09:45:03;23.90;99.90
11025;DHT22;22890;51.820;8.682;2022-08-19T09:47:36;23.80;99.90
11025;DHT22;22890;51.820;8.682;2022-08-19T09:50:08;23.80;99.90
11025;DHT22;22890;51.820;8.682;2022-08-19T09:52:36;23.90;99.90
11025;DHT22;22890;51.820;8.682;2022-08-19T09:55:08;24.00;99.90
11025;DHT22;22890;51.820;8.682;2022-08-19T09:57:35;24.00;99.90
11025;DHT22;22890;51.820;8.682;2022-08-19T10:00:05;24.00;99.90
11025;DHT22;22890;51.820;8.682;2022-08-19T10:02:32;24.00;99.90
11025;DHT22;22890;51.820;8.682;2022-08-19T10:04:59;24.10;99.90
11025;DHT22;22890;51.820;8.682;2022-08-19T10:07:52;24.20;99.90
11025;DHT22;22890;51.820;8.682;2022-08-19T10:10:22;24.20;99.90
11025;DHT22;22890;51.820;8.682;2022-08-19T10:12:50;24.30;99.90
11025;DHT22;22890;51.820;8.682;2022-08-19T10:15:16;24.40;99.90
11025;DHT22;22890;51.820;8.682;2022-08-19T10:17:55;24.50;99.90
11025;DHT22;22890;51.820;8.682;2022-08-19T10:20:24;24.60;99.90
11025;DHT22;22890;51.820;8.682;2022-08-19T10:22:51;24.60;99.90
11025;DHT22;22890;51.820;8.682;2022-08-19T10:25:18;24.60;99.90
11025;DHT22;22890;51.820;8.682;2022-08-19T10:27:45;24.60;99.90
11025;DHT22;22890;51.820;8.682;2022-08-19T10:30:17;24.60;99.90
11025;DHT22;22890;51.820;8.682;2022-08-19T10:32:45;24.60;99.90
11025;DHT22;22890;51.820;8.682;2022-08-19T10:35:13;24.70;99.90
11025;DHT22;22890;51.820;8.682;2022-08-19T10:37:47;24.80;99.90
11025;DHT22;22890;51.820;8.682;2022-08-19T10:40:27;24.80;99.90
11025;DHT22;22890;51.820;8.682;2022-08-19T10:42:55;24.70;99.90
11025;DHT22;22890;51.820;8.682;2022-08-19T10:45:23;24.70;99.90
11025;DHT22;22890;51.820;8.682;2022-08-19T10:47:53;24.70;99.90
11025;DHT22;22890;51.820;8.682;2022-08-19T10:50:21;24.80;99.90
11025;DHT22;22890;51.820;8.682;2022-08-19T10:53:08;24.90;99.90
11025;DHT22;22890;51.820;8.682;2022-08-19T10:55:35;24.90;99.90
11025;DHT22;22890;51.820;8.682;2022-08-19T10:58:22;24.80;99.90
11025;DHT22;22890;51.820;8.682;2022-08-19T11:00:56;24.90;99.90
11025;DHT22;22890;51.820;8.682;2022-08-19T11:03:24;25.10;99.90
11025;DHT22;22890;51.820;8.682;2022-08-19T11:05:59;25.20;99.90
11025;DHT22;22890;51.820;8.682;2022-08-19T11:08:26;25.30;99.90
11025;DHT22;22890;51.820;8.682;2022-08-19T11:10:54;25.50;99.90
11025;DHT22;22890;51.820;8.682;2022-08-19T11:13:32;25.50;99.90
11025;DHT22;22890;51.820;8.682;2022-08-19T11:16:12;25.60;99.90
11025;DHT22;22890;51.820;8.682;2022-08-19T11:18:45;25.60;99.90
11025;DHT22;22890;51.820;8.682;2022-08-19T11:23:43;25.70;99.90
11025;DHT22;22890;51.820;8.682;2022-08-19T11:26:10;25.70;99.90
11025;DHT22;22890;51.820;8.682;2022-08-19T11:28:37;25.70;99.90
11025;DHT22;22890;51.820;8.682;2022-08-19T11:31:13;25.70;99.90
11025;DHT22;22890;51.820;8.682;2022-08-19T11:33:40;25.80;99.90
11025;DHT22;22890;51.820;8.682;2022-08-19T11:36:13;25.80;99.90
11025;DHT22;22890;51.820;8.682;2022-08-19T11:38:40;25.80;99.90
11025;DHT22;22890;51.820;8.682;2022-08-19T11:41:07;25.80;99.90
11025;DHT22;22890;51.820;8.682;2022-08-19T11:43:35;25.80;99.90
11025;DHT22;22890;51.820;8.682;2022-08-19T11:46:08;25.80;99.90
11025;DHT22;22890;51.820;8.682;2022-08-19T11:48:37;25.90;99.90
11025;DHT22;22890;51.820;8.682;2022-08-19T11:51:06;26.00;99.90
11025;DHT22;22890;51.820;8.682;2022-08-19T11:53:34;26.10;99.90
11025;DHT22;22890;51.820;8.682;2022-08-19T11:56:01;26.10;99.90
11025;DHT22;22890;51.820;8.682;2022-08-19T11:58:27;26.10;99.90
11025;DHT22;22890;51.820;8.682;2022-08-19T12:00:55;26.10;99.90
11025;DHT22;22890;51.820;8.682;2022-08-19T12:03:22;26.20;99.90
11025;DHT22;22890;51.820;8.682;2022-08-19T12:05:49;26.20;99.90
11025;DHT22;22890;51.820;8.682;2022-08-19T12:08:16;26.20;99.90
11025;DHT22;22890;51.820;8.682;2022-08-19T12:10:44;26.30;99.90
11025;DHT22;22890;51.820;8.682;2022-08-19T12:13:12;26.30;99.90
11025;DHT22;22890;51.820;8.682;2022-08-19T12:15:46;26.40;99.90
11025;DHT22;22890;51.820;8.682;2022-08-19T12:18:14;26.40;99.80
11025;DHT22;22890;51.820;8.682;2022-08-19T12:20:42;26.30;98.40
11025;DHT22;22890;51.820;8.682;2022-08-19T12:23:09;26.30;98.80
11025;DHT22;22890;51.820;8.682;2022-08-19T12:25:42;26.30;98.90
11025;DHT22;22890;51.820;8.682;2022-08-19T12:28:14;26.30;99.00
11025;DHT22;22890;51.820;8.682;2022-08-19T12:30:42;26.30;98.90
11025;DHT22;22890;51.820;8.682;2022-08-19T12:33:09;26.30;98.30
11025;DHT22;22890;51.820;8.682;2022-08-19T12:35:40;26.30;98.20
11025;DHT22;22890;51.820;8.682;2022-08-19T12:38:14;26.30;98.30
11025;DHT22;22890;51.820;8.682;2022-08-19T12:40:44;26.30;98.50
11025;DHT22;22890;51.820;8.682;2022-08-19T12:43:11;26.30;98.20
11025;DHT22;22890;51.820;8.682;2022-08-19T12:45:38;26.30;97.30
11025;DHT22;22890;51.820;8.682;2022-08-19T12:48:06;26.30;97.70
11025;DHT22;22890;51.820;8.682;2022-08-19T12:50:53;26.30;97.90
11025;DHT22;22890;51.820;8.682;2022-08-19T12:53:20;26.30;98.00
11025;DHT22;22890;51.820;8.682;2022-08-19T12:55:47;27.90;98.60
11025;DHT22;22890;51.820;8.682;2022-08-19T12:58:13;26.40;97.90
11025;DHT22;22890;51.820;8.682;2022-08-19T13:00:40;26.40;98.00
11025;DHT22;22890;51.820;8.682;2022-08-19T13:03:07;26.50;98.10
11025;DHT22;22890;51.820;8.682;2022-08-19T13:05:34;26.60;98.30
11025;DHT22;22890;51.820;8.682;2022-08-19T13:08:00;26.60;98.40
11025;DHT22;22890;51.820;8.682;2022-08-19T13:10:33;26.70;98.40
11025;DHT22;22890;51.820;8.682;2022-08-19T13:13:05;26.80;98.10
11025;DHT22;22890;51.820;8.682;2022-08-19T13:15:37;26.90;98.10
11025;DHT22;22890;51.820;8.682;2022-08-19T13:18:04;26.90;97.70
11025;DHT22;22890;51.820;8.682;2022-08-19T13:20:30;27.00;98.00
11025;DHT22;22890;51.820;8.682;2022-08-19T13:22:57;27.00;98.10
11025;DHT22;22890;51.820;8.682;2022-08-19T13:25:24;27.00;98.20
11025;DHT22;22890;51.820;8.682;2022-08-19T13:27:51;27.10;98.50
11025;DHT22;22890;51.820;8.682;2022-08-19T13:30:19;27.10;98.00
11025;DHT22;22890;51.820;8.682;2022-08-19T13:33:05;27.00;97.80
11025;DHT22;22890;51.820;8.682;2022-08-19T13:38:10;27.00;97.70
11025;DHT22;22890;51.820;8.682;2022-08-19T13:40:38;27.00;97.80
11025;DHT22;22890;51.820;8.682;2022-08-19T13:43:07;27.10;98.10
11025;DHT22;22890;51.820;8.682;2022-08-19T13:45:52;27.10;98.00
11025;DHT22;22890;51.820;8.682;2022-08-19T13:48:24;27.00;97.80
11025;DHT22;22890;51.820;8.682;2022-08-19T13:50:52;27.10;97.80
11025;DHT22;22890;51.820;8.682;2022-08-19T13:53:20;27.10;97.60
11025;DHT22;22890;51.820;8.682;2022-08-19T13:55:47;27.10;97.60
11025;DHT22;22890;51.820;8.682;2022-08-19T13:58:13;27.10;97.40
11025;DHT22;22890;51.820;8.682;2022-08-19T14:00:43;27.10;97.70
11025;DHT22;22890;51.820;8.682;2022-08-19T14:03:11;27.10;97.20
11025;DHT22;22890;51.820;8.682;2022-08-19T14:05:38;27.10;97.20
11025;DHT22;22890;51.820;8.682;2022-08-19T14:13:03;27.10;96.90
11025;DHT22;22890;51.820;8.682;2022-08-19T14:15:30;27.20;97.30
11025;DHT22;22890;51.820;8.682;2022-08-19T14:17:57;27.30;97.50
11025;DHT22;22890;51.820;8.682;2022-08-19T14:20:24;27.30;97.70
11025;DHT22;22890;51.820;8.682;2022-08-19T14:22:52;27.40;97.70
11025;DHT22;22890;51.820;8.682;2022-08-19T14:25:22;27.40;97.90
11025;DHT22;22890;51.820;8.682;2022-08-19T14:27:49;27.40;98.20
11025;DHT22;22890;51.820;8.682;2022-08-19T14:30:22;27.40;97.70
11025;DHT22;22890;51.820;8.682;2022-08-19T14:32:49;27.40;97.90
11025;DHT22;22890;51.820;8.682;2022-08-19T14:35:16;27.40;98.00
11025;DHT22;22890;51.820;8.682;2022-08-19T14:37:44;27.40;97.90
11025;DHT22;22890;51.820;8.682;2022-08-19T14:40:17;27.40;97.80
11025;DHT22;22890;51.820;8.682;2022-08-19T14:42:44;27.30;97.70
11025;DHT22;22890;51.820;8.682;2022-08-19T14:45:11;27.20;97.50
11025;DHT22;22890;51.820;8.682;2022-08-19T14:47:38;27.20;97.50
11025;DHT22;22890;51.820;8.682;2022-08-19T14:50:08;27.20;97.40
11025;DHT22;22890;51.820;8.682;2022-08-19T14:52:43;27.20;97.30
11025;DHT22;22890;51.820;8.682;2022-08-19T14:55:10;27.10;97.10
11025;DHT22;22890;51.820;8.682;2022-08-19T14:57:36;27.10;97.20
11025;DHT22;22890;51.820;8.682;2022-08-19T15:00:04;27.10;97.40
11025;DHT22;22890;51.820;8.682;2022-08-19T15:02:30;27.10;97.50
11025;DHT22;22890;51.820;8.682;2022-08-19T15:05:01;27.10;97.60
11025;DHT22;22890;51.820;8.682;2022-08-19T15:07:28;27.20;97.60
11025;DHT22;22890;51.820;8.682;2022-08-19T15:09:56;27.20;97.60
11025;DHT22;22890;51.820;8.682;2022-08-19T15:12:23;27.20;97.40
11025;DHT22;22890;51.820;8.682;2022-08-19T15:14:51;27.30;97.00
11025;DHT22;22890;51.820;8.682;2022-08-19T15:17:22;27.20;96.80
11025;DHT22;22890;51.820;8.682;2022-08-19T15:20:10;27.30;96.60
11025;DHT22;22890;51.820;8.682;2022-08-19T15:22:39;27.30;96.60
11025;DHT22;22890;51.820;8.682;2022-08-19T15:25:07;27.30;96.60
11025;DHT22;22890;51.820;8.682;2022-08-19T15:27:37;27.30;96.60
11025;DHT22;22890;51.820;8.682;2022-08-19T15:30:07;27.30;96.60
11025;DHT22;22890;51.820;8.682;2022-08-19T15:32:35;27.30;96.70
11025;DHT22;22890;51.820;8.682;2022-08-19T15:35:03;27.30;96.70
11025;DHT22;22890;51.820;8.682;2022-08-19T15:37:31;27.30;96.60
11025;DHT22;22890;51.820;8.682;2022-08-19T15:40:04;27.30;96.60
11025;DHT22;22890;51.820;8.682;2022-08-19T15:42:32;27.30;96.70
11025;DHT22;22890;51.820;8.682;2022-08-19T15:44:59;27.30;96.90
11025;DHT22;22890;51.820;8.682;2022-08-19T15:47:31;27.30;96.80
11025;DHT22;22890;51.820;8.682;2022-08-19T15:50:07;27.40;96.70
11025;DHT22;22890;51.820;8.682;2022-08-19T15:52:43;27.40;96.80
11025;DHT22;22890;51.820;8.682;2022-08-19T15:55:18;27.40;96.90
11025;DHT22;22890;51.820;8.682;2022-08-19T15:58:04;27.40;96.90
11025;DHT22;22890;51.820;8.682;2022-08-19T16:00:59;27.40;96.70
11025;DHT22;22890;51.820;8.682;2022-08-19T16:03:51;27.30;96.60
11025;DHT22;22890;51.820;8.682;2022-08-19T16:07:01;27.20;96.80
11025;DHT22;22890;51.820;8.682;2022-08-19T16:09:30;27.20;97.00
11025;DHT22;22890;51.820;8.682;2022-08-19T16:11:59;27.20;96.90
11025;DHT22;22890;51.820;8.682;2022-08-19T16:14:29;27.20;96.80